Time;durP1;ratioP1;P1;durP2;ratioP2;P2;SDS_P1;SDS_P2;PMS_P1;PMS_P2;Temp;Humidity;BMP_temperature;BMP_pressure;BME280_temperature;BME280_humidity;BME280_pressure;Samples;Min_cycle;Max_cycle;Signal;HPM_P1;HPM_P2
2024/04/09 00:00:03;;;;;;;5.70;0.43;;;;;;;;;;5343064;26;95827;-49
2024/04/09 00:02:28;;;;;;;3.83;0.40;;;;;;;;;;5337355;26;96784;-50
2024/04/09 00:04:54;;;;;;;7.45;0.40;;;;;;;;;;5367683;26;96561;-50
2024/04/09 00:07:21;;;;;;;5.22;0.57;;;;;;;;;;5392049;26;95604;-50
2024/04/09 00:09:51;;;;;;;8.68;0.50;;;;;;;;;;5375707;26;96769;-50
2024/04/09 00:12:21;;;;;;;6.72;0.57;;;;;;;;;;5379070;26;95940;-49
2024/04/09 00:14:49;;;;;;;7.90;0.80;;;;;;;;;;5373946;26;96217;-50
2024/04/09 00:17:19;;;;;;;8.85;0.52;;;;;;;;;;5373273;25;96088;-50
2024/04/09 00:19:48;;;;;;;7.90;0.88;;;;;;;;;;5370745;26;95922;-50
2024/04/09 00:22:14;;;;;;;11.15;0.30;;;;;;;;;;5362253;26;99497;-50
2024/04/09 00:24:39;;;;;;;8.77;0.40;;;;;;;;;;5370376;26;96437;-55
2024/04/09 00:27:06;;;;;;;8.18;0.40;;;;;;;;;;5384358;26;97279;-49
2024/04/09 00:29:34;;;;;;;8.25;0.50;;;;;;;;;;5390934;26;98404;-50
2024/04/09 00:32:00;;;;;;;5.40;0.30;;;;;;;;;;5384404;26;96131;-49
2024/04/09 00:34:25;;;;;;;6.78;0.30;;;;;;;;;;5387527;26;96038;-49
2024/04/09 00:36:51;;;;;;;4.78;0.60;;;;;;;;;;5373860;26;97585;-49
2024/04/09 00:39:24;;;;;;;7.15;0.30;;;;;;;;;;5362370;26;95971;-50
2024/04/09 00:41:50;;;;;;;9.30;0.60;;;;;;;;;;5368876;26;97028;-49
2024/04/09 00:44:15;;;;;;;7.45;1.58;;;;;;;;;;5369683;26;97229;-49
2024/04/09 00:46:42;;;;;;;8.98;0.88;;;;;;;;;;5400052;25;97597;-49
2024/04/09 00:49:10;;;;;;;10.52;0.65;;;;;;;;;;5378809;25;97487;-49
2024/04/09 00:51:38;;;;;;;6.55;0.35;;;;;;;;;;5378676;26;96056;-49
2024/04/09 00:54:05;;;;;;;6.43;0.80;;;;;;;;;;5391822;26;96590;-49
2024/04/09 00:56:32;;;;;;;9.73;1.42;;;;;;;;;;5371033;26;96231;-49
2024/04/09 00:58:59;;;;;;;5.93;0.60;;;;;;;;;;5380830;26;95904;-49
2024/04/09 01:01:26;;;;;;;7.65;0.43;;;;;;;;;;5372131;26;97247;-50
2024/04/09 01:03:52;;;;;;;13.45;1.98;;;;;;;;;;5360333;25;96039;-50
2024/04/09 01:06:17;;;;;;;8.52;0.90;;;;;;;;;;5334880;26;95896;-49
2024/04/09 01:08:43;;;;;;;11.63;1.25;;;;;;;;;;5332827;26;96202;-49
2024/04/09 01:11:08;;;;;;;8.90;0.52;;;;;;;;;;5341616;26;96420;-49
2024/04/09 01:13:36;;;;;;;10.07;0.75;;;;;;;;;;5337157;26;95961;-50
2024/04/09 01:16:03;;;;;;;14.30;2.33;;;;;;;;;;5337768;26;95960;-50
2024/04/09 01:18:28;;;;;;;7.40;0.40;;;;;;;;;;5335869;26;97593;-50
2024/04/09 01:20:54;;;;;;;8.35;0.50;;;;;;;;;;5340379;26;96051;-49
2024/04/09 01:23:19;;;;;;;8.65;0.60;;;;;;;;;;5311616;26;96403;-49
2024/04/09 01:25:45;;;;;;;7.43;0.70;;;;;;;;;;5307718;26;96451;-54
2024/04/09 01:28:10;;;;;;;6.85;0.45;;;;;;;;;;5337807;26;96517;-54
2024/04/09 01:30:37;;;;;;;13.85;0.80;;;;;;;;;;5326215;26;96677;-49
2024/04/09 01:33:04;;;;;;;7.70;0.43;;;;;;;;;;5349406;26;96079;-49
2024/04/09 01:35:30;;;;;;;8.38;0.82;;;;;;;;;;5332294;26;96237;-49
2024/04/09 01:37:55;;;;;;;8.68;0.50;;;;;;;;;;5342599;26;97480;-49
2024/04/09 01:40:21;;;;;;;9.00;0.57;;;;;;;;;;5340731;26;95923;-49
2024/04/09 01:42:46;;;;;;;9.30;0.52;;;;;;;;;;5343871;26;96058;-49
2024/04/09 01:45:12;;;;;;;7.80;0.63;;;;;;;;;;5326650;26;95610;-46
2024/04/09 01:47:37;;;;;;;8.05;0.77;;;;;;;;;;5332118;26;95910;-50
2024/04/09 01:50:03;;;;;;;5.97;0.40;;;;;;;;;;5348909;26;96839;-49
2024/04/09 01:52:34;;;;;;;7.43;1.10;;;;;;;;;;5310224;26;95795;-48
2024/04/09 01:55:00;;;;;;;12.60;0.77;;;;;;;;;;5339531;26;95974;-49
2024/04/09 01:57:28;;;;;;;9.25;0.70;;;;;;;;;;5346553;26;95976;-49
2024/04/09 01:59:54;;;;;;;14.17;1.10;;;;;;;;;;5351373;26;96108;-49
2024/04/09 02:02:20;;;;;;;15.50;1.80;;;;;;;;;;5343950;26;99196;-48
2024/04/09 02:04:45;;;;;;;11.43;0.60;;;;;;;;;;5338126;26;96231;-48
2024/04/09 02:07:11;;;;;;;6.88;0.60;;;;;;;;;;5347149;26;99659;-50
2024/04/09 02:09:36;;;;;;;11.70;0.80;;;;;;;;;;5335043;26;96141;-49
2024/04/09 02:12:03;;;;;;;8.00;0.77;;;;;;;;;;5341632;26;96357;-50
2024/04/09 02:14:29;;;;;;;11.18;0.80;;;;;;;;;;5337827;26;96013;-49
2024/04/09 02:16:54;;;;;;;12.07;0.65;;;;;;;;;;5336506;26;97415;-48
2024/04/09 02:19:20;;;;;;;16.77;2.67;;;;;;;;;;5341448;26;95620;-49
2024/04/09 02:21:46;;;;;;;8.07;1.30;;;;;;;;;;5355142;26;96024;-49
2024/04/09 02:24:11;;;;;;;6.18;0.60;;;;;;;;;;5340335;26;95628;-49
2024/04/09 02:26:37;;;;;;;14.95;2.38;;;;;;;;;;5341498;26;97962;-49
2024/04/09 02:29:02;;;;;;;9.60;0.50;;;;;;;;;;5338289;26;96020;-49
2024/04/09 02:31:27;;;;;;;10.68;0.80;;;;;;;;;;5334808;26;97597;-53
2024/04/09 02:33:53;;;;;;;9.98;1.05;;;;;;;;;;5351164;26;96079;-53
2024/04/09 02:36:18;;;;;;;11.63;0.77;;;;;;;;;;5344137;26;96192;-49
2024/04/09 02:38:43;;;;;;;6.35;0.70;;;;;;;;;;5329073;26;95900;-49
2024/04/09 02:41:14;;;;;;;15.18;1.10;;;;;;;;;;5344516;26;96944;-49
2024/04/09 02:43:39;;;;;;;9.23;0.60;;;;;;;;;;5324923;26;97105;-48
2024/04/09 02:46:05;;;;;;;10.57;0.43;;;;;;;;;;5355419;26;97223;-48
2024/04/09 02:48:30;;;;;;;7.90;0.60;;;;;;;;;;5335841;26;96266;-48
2024/04/09 02:51:01;;;;;;;8.75;0.60;;;;;;;;;;5333804;26;95867;-49
2024/04/09 02:53:26;;;;;;;8.73;0.50;;;;;;;;;;5338522;26;96019;-48
2024/04/09 02:56:03;;;;;;;12.38;0.70;;;;;;;;;;5333549;26;96320;-49
2024/04/09 02:58:28;;;;;;;6.32;0.60;;;;;;;;;;5317666;26;95909;-48
2024/04/09 03:00:54;;;;;;;11.18;0.50;;;;;;;;;;5340068;26;97141;-49
2024/04/09 03:03:20;;;;;;;7.72;0.45;;;;;;;;;;5340710;26;96030;-49
2024/04/09 03:05:45;;;;;;;10.63;0.88;;;;;;;;;;5340876;26;95971;-49
2024/04/09 03:08:10;;;;;;;9.63;0.68;;;;;;;;;;5358585;26;102226;-49
2024/04/09 03:10:36;;;;;;;7.85;0.45;;;;;;;;;;5344083;26;95691;-49
2024/04/09 03:13:02;;;;;;;6.30;0.60;;;;;;;;;;5323619;26;96134;-48
2024/04/09 03:15:29;;;;;;;8.13;0.40;;;;;;;;;;5335709;26;96173;-49
2024/04/09 03:17:55;;;;;;;9.65;0.60;;;;;;;;;;5334733;26;95749;-48
2024/04/09 03:20:20;;;;;;;9.02;0.40;;;;;;;;;;5339266;26;96245;-49
2024/04/09 03:22:46;;;;;;;10.57;0.70;;;;;;;;;;5334675;26;98518;-48
2024/04/09 03:25:11;;;;;;;8.93;0.55;;;;;;;;;;5351282;26;95962;-48
2024/04/09 03:27:36;;;;;;;6.68;0.40;;;;;;;;;;5333498;26;95967;-48
2024/04/09 03:30:04;;;;;;;9.93;0.60;;;;;;;;;;5337843;26;95496;-53
2024/04/09 03:32:29;;;;;;;10.35;0.63;;;;;;;;;;5336299;26;96650;-53
2024/04/09 03:34:55;;;;;;;7.07;0.50;;;;;;;;;;5348441;26;95898;-49
2024/04/09 03:37:20;;;;;;;8.85;1.33;;;;;;;;;;5332394;26;97917;-48
2024/04/09 03:39:45;;;;;;;7.25;0.40;;;;;;;;;;5351178;26;95972;-49
2024/04/09 03:42:11;;;;;;;8.30;0.50;;;;;;;;;;5353190;26;97469;-49
2024/04/09 03:44:36;;;;;;;6.47;0.60;;;;;;;;;;5371701;26;95982;-49
2024/04/09 03:47:04;;;;;;;8.65;0.60;;;;;;;;;;5329867;26;97668;-50
2024/04/09 03:49:38;;;;;;;8.77;0.60;;;;;;;;;;5352667;26;96159;-52
2024/04/09 03:52:04;;;;;;;4.90;0.68;;;;;;;;;;5322850;26;96110;-53
2024/04/09 03:54:31;;;;;;;9.00;0.80;;;;;;;;;;5331024;26;97205;-52
2024/04/09 03:56:56;;;;;;;9.40;0.80;;;;;;;;;;5351027;26;95568;-50
2024/04/09 03:59:22;;;;;;;12.75;0.50;;;;;;;;;;5316804;26;97153;-50
2024/04/09 04:01:47;;;;;;;9.43;0.80;;;;;;;;;;5340050;26;98358;-49
2024/04/09 04:04:17;;;;;;;8.85;0.40;;;;;;;;;;5359025;26;95904;-49
2024/04/09 04:06:43;;;;;;;9.02;0.73;;;;;;;;;;5391649;26;95981;-49
2024/04/09 04:09:08;;;;;;;5.97;0.40;;;;;;;;;;5379951;26;95746;-49
2024/04/09 04:11:35;;;;;;;10.43;0.60;;;;;;;;;;5385539;26;97023;-49
2024/04/09 04:14:01;;;;;;;8.77;0.85;;;;;;;;;;5382512;26;96653;-49
2024/04/09 04:16:26;;;;;;;6.18;0.43;;;;;;;;;;5376225;26;95731;-50
2024/04/09 04:18:52;;;;;;;7.72;0.77;;;;;;;;;;5379035;26;97982;-49
2024/04/09 04:21:19;;;;;;;12.02;1.48;;;;;;;;;;5350097;26;97290;-50
2024/04/09 04:23:51;;;;;;;9.50;0.52;;;;;;;;;;5365873;26;95808;-49
2024/04/09 04:26:18;;;;;;;7.70;0.32;;;;;;;;;;5364228;26;96894;-49
2024/04/09 04:28:45;;;;;;;12.07;0.75;;;;;;;;;;5361651;26;96139;-49
2024/04/09 04:31:12;;;;;;;10.63;0.73;;;;;;;;;;5364986;26;96241;-50
2024/04/09 04:33:39;;;;;;;12.88;0.70;;;;;;;;;;5355151;26;95871;-49
2024/04/09 04:36:08;;;;;;;7.70;0.30;;;;;;;;;;5360500;26;97384;-50
2024/04/09 04:38:34;;;;;;;6.60;0.60;;;;;;;;;;5379483;26;95955;-49
2024/04/09 04:41:00;;;;;;;6.50;0.80;;;;;;;;;;5378482;26;97687;-49
2024/04/09 04:43:25;;;;;;;4.90;0.70;;;;;;;;;;5369150;26;96651;-50
2024/04/09 04:45:51;;;;;;;9.63;0.40;;;;;;;;;;5353451;26;97729;-48
2024/04/09 04:48:18;;;;;;;9.20;0.90;;;;;;;;;;5356046;26;96530;-49
2024/04/09 04:50:44;;;;;;;8.80;0.50;;;;;;;;;;5368183;26;96081;-53
2024/04/09 04:53:10;;;;;;;9.40;0.85;;;;;;;;;;5386145;26;96120;-53
2024/04/09 04:55:35;;;;;;;6.53;0.65;;;;;;;;;;5369410;26;96173;-49
2024/04/09 04:58:01;;;;;;;11.50;0.68;;;;;;;;;;5373391;26;96047;-49
2024/04/09 05:00:27;;;;;;;9.80;0.60;;;;;;;;;;5360717;26;96695;-49
2024/04/09 05:02:53;;;;;;;9.27;0.60;;;;;;;;;;5360878;26;97316;-50
2024/04/09 05:05:18;;;;;;;5.90;0.40;;;;;;;;;;5361713;26;97462;-50
2024/04/09 05:07:44;;;;;;;9.65;0.95;;;;;;;;;;5351114;26;98358;-50
2024/04/09 05:10:12;;;;;;;7.00;1.20;;;;;;;;;;5363333;26;96204;-50
2024/04/09 05:12:44;;;;;;;12.85;1.10;;;;;;;;;;5373801;26;95953;-50
2024/04/09 05:15:10;;;;;;;8.05;1.08;;;;;;;;;;5351767;26;97946;-53
2024/04/09 05:17:36;;;;;;;7.40;0.65;;;;;;;;;;5358148;26;97526;-53
2024/04/09 05:20:03;;;;;;;8.95;0.50;;;;;;;;;;5352752;26;96020;-53
2024/04/09 05:22:29;;;;;;;7.55;0.40;;;;;;;;;;5359161;26;95801;-53
2024/04/09 05:24:55;;;;;;;6.20;0.52;;;;;;;;;;5362317;26;96043;-50
2024/04/09 05:27:21;;;;;;;5.82;0.47;;;;;;;;;;5370143;26;98444;-49
2024/04/09 05:29:46;;;;;;;9.88;0.50;;;;;;;;;;5348719;26;98062;-50
2024/04/09 05:32:12;;;;;;;16.33;0.88;;;;;;;;;;5356542;26;96272;-49
2024/04/09 05:34:37;;;;;;;13.13;0.63;;;;;;;;;;5371355;26;98608;-49
2024/04/09 05:37:03;;;;;;;8.82;0.55;;;;;;;;;;5364505;26;96048;-50
2024/04/09 05:39:29;;;;;;;4.30;0.50;;;;;;;;;;5362449;26;97539;-50
2024/04/09 05:41:54;;;;;;;8.38;0.63;;;;;;;;;;5359779;26;96035;-50
2024/04/09 05:44:19;;;;;;;9.43;0.47;;;;;;;;;;5369411;26;96611;-49
2024/04/09 05:46:45;;;;;;;10.57;0.45;;;;;;;;;;5369152;26;97301;-49
2024/04/09 05:49:10;;;;;;;9.43;0.68;;;;;;;;;;5370420;26;95931;-49
2024/04/09 05:51:36;;;;;;;7.20;0.30;;;;;;;;;;5361241;26;97818;-54
2024/04/09 05:54:01;;;;;;;8.48;0.70;;;;;;;;;;5355958;26;96058;-54
2024/04/09 05:56:26;;;;;;;4.50;0.40;;;;;;;;;;5361126;26;98321;-49
2024/04/09 05:58:52;;;;;;;10.68;1.50;;;;;;;;;;5359753;26;98206;-50
2024/04/09 06:01:18;;;;;;;8.10;0.93;;;;;;;;;;5362009;26;99399;-49
2024/04/09 06:03:43;;;;;;;8.02;0.50;;;;;;;;;;5349687;26;96267;-49
2024/04/09 06:06:09;;;;;;;8.13;0.50;;;;;;;;;;5349155;26;96082;-48
2024/04/09 06:08:34;;;;;;;12.27;0.65;;;;;;;;;;5353137;26;97596;-49
2024/04/09 06:11:02;;;;;;;7.95;0.40;;;;;;;;;;5343100;26;97191;-49
2024/04/09 06:13:28;;;;;;;5.60;0.50;;;;;;;;;;5349072;26;98489;-49
2024/04/09 06:15:53;;;;;;;4.63;0.50;;;;;;;;;;5344843;26;98437;-49
2024/04/09 06:18:18;;;;;;;10.13;0.52;;;;;;;;;;5351205;26;98558;-49
2024/04/09 06:20:45;;;;;;;7.97;0.50;;;;;;;;;;5344701;26;95995;-49
2024/04/09 06:23:11;;;;;;;10.60;1.30;;;;;;;;;;5355572;26;97240;-49
2024/04/09 06:25:36;;;;;;;7.63;0.57;;;;;;;;;;5351613;26;96090;-50
2024/04/09 06:28:02;;;;;;;7.90;0.63;;;;;;;;;;5340005;26;95506;-49
2024/04/09 06:30:28;;;;;;;10.80;2.08;;;;;;;;;;5357140;26;96079;-49
2024/04/09 06:32:53;;;;;;;13.30;3.00;;;;;;;;;;5342519;26;97041;-49
2024/04/09 06:35:20;;;;;;;10.40;1.38;;;;;;;;;;5339847;26;95950;-49
2024/04/09 06:37:45;;;;;;;10.20;0.90;;;;;;;;;;5359916;26;95843;-49
2024/04/09 06:40:10;;;;;;;9.02;1.58;;;;;;;;;;5356473;26;95737;-49
2024/04/09 06:42:36;;;;;;;11.75;1.13;;;;;;;;;;5354349;26;95857;-49
2024/04/09 06:45:03;;;;;;;9.35;0.52;;;;;;;;;;5343206;26;96718;-49
2024/04/09 06:47:28;;;;;;;7.63;0.73;;;;;;;;;;5347521;26;97042;-53
2024/04/09 06:49:55;;;;;;;9.07;0.80;;;;;;;;;;5368000;26;96534;-51
2024/04/09 06:52:20;;;;;;;10.07;0.70;;;;;;;;;;5343762;26;96056;-51
2024/04/09 06:54:45;;;;;;;10.77;0.60;;;;;;;;;;5355142;26;96099;-53
2024/04/09 06:57:11;;;;;;;8.35;0.50;;;;;;;;;;5349545;26;98515;-53
2024/04/09 06:59:36;;;;;;;11.75;1.08;;;;;;;;;;5366538;26;96460;-50
2024/04/09 07:02:01;;;;;;;14.48;0.85;;;;;;;;;;5360622;26;97392;-49
2024/04/09 07:04:27;;;;;;;10.60;0.75;;;;;;;;;;5335789;26;96211;-53
2024/04/09 07:06:52;;;;;;;8.38;0.60;;;;;;;;;;5338052;26;97454;-53
2024/04/09 07:09:18;;;;;;;9.95;0.57;;;;;;;;;;5334865;26;96025;-53
2024/04/09 07:11:44;;;;;;;7.97;0.75;;;;;;;;;;5327619;26;95975;-53
2024/04/09 07:14:13;;;;;;;7.25;0.55;;;;;;;;;;5322837;26;96357;-50
2024/04/09 07:16:39;;;;;;;10.32;1.23;;;;;;;;;;5326631;26;95950;-51
2024/04/09 07:19:05;;;;;;;9.02;0.88;;;;;;;;;;5323130;26;96015;-50
2024/04/09 07:21:30;;;;;;;9.75;0.60;;;;;;;;;;5357638;26;96062;-51
2024/04/09 07:23:56;;;;;;;15.88;1.10;;;;;;;;;;5332012;26;95951;-51
2024/04/09 07:26:21;;;;;;;8.93;0.95;;;;;;;;;;5335108;26;95577;-52
2024/04/09 07:28:46;;;;;;;8.57;0.60;;;;;;;;;;5326382;26;95998;-50
2024/04/09 07:31:14;;;;;;;9.02;0.60;;;;;;;;;;5316920;26;96157;-50
2024/04/09 07:33:39;;;;;;;11.05;0.90;;;;;;;;;;5339996;26;95818;-52
2024/04/09 07:36:06;;;;;;;9.57;0.85;;;;;;;;;;5321782;26;96153;-50
2024/04/09 07:38:31;;;;;;;6.40;0.50;;;;;;;;;;5338091;26;97265;-51
2024/04/09 07:40:56;;;;;;;3.90;0.40;;;;;;;;;;5349096;26;95871;-51
2024/04/09 07:43:21;;;;;;;9.32;0.60;;;;;;;;;;5333159;26;97862;-50
2024/04/09 07:45:52;;;;;;;12.52;1.10;;;;;;;;;;5308206;26;95756;-50
2024/04/09 07:48:18;;;;;;;5.95;0.50;;;;;;;;;;5344967;26;96034;-51
2024/04/09 07:50:43;;;;;;;12.80;0.60;;;;;;;;;;5339999;26;96546;-51
2024/04/09 07:53:08;;;;;;;9.75;0.60;;;;;;;;;;5343054;26;95907;-51
2024/04/09 07:55:35;;;;;;;11.30;0.55;;;;;;;;;;5309243;26;97448;-51
2024/04/09 07:58:02;;;;;;;11.18;1.13;;;;;;;;;;5356948;26;96032;-52
2024/04/09 08:00:27;;;;;;;14.52;0.88;;;;;;;;;;5339124;26;95952;-48
2024/04/09 08:02:52;;;;;;;13.25;1.13;;;;;;;;;;5340153;26;96345;-49
2024/04/09 08:05:18;;;;;;;10.82;1.00;;;;;;;;;;5313789;26;97938;-51
2024/04/09 08:07:43;;;;;;;6.72;1.17;;;;;;;;;;5329258;26;95999;-51
2024/04/09 08:10:12;;;;;;;10.88;0.75;;;;;;;;;;5337863;26;96041;-51
2024/04/09 08:12:39;;;;;;;15.33;1.23;;;;;;;;;;5313157;26;95712;-50
2024/04/09 08:15:04;;;;;;;9.70;0.47;;;;;;;;;;5318552;26;97251;-49
2024/04/09 08:17:30;;;;;;;10.20;0.70;;;;;;;;;;5304197;26;98145;-51
2024/04/09 08:19:55;;;;;;;13.10;0.88;;;;;;;;;;5337844;26;95705;-49
2024/04/09 08:22:22;;;;;;;11.98;0.88;;;;;;;;;;5333093;26;96008;-49
2024/04/09 08:24:47;;;;;;;10.13;0.90;;;;;;;;;;5336347;26;96081;-50
2024/04/09 08:27:13;;;;;;;9.68;0.85;;;;;;;;;;5327909;26;96514;-51
2024/04/09 08:29:39;;;;;;;10.60;0.60;;;;;;;;;;5339187;26;96289;-50
2024/04/09 08:32:05;;;;;;;8.18;0.45;;;;;;;;;;5318927;26;95624;-48
2024/04/09 08:34:30;;;;;;;10.70;0.93;;;;;;;;;;5319860;26;95919;-52
2024/04/09 08:36:55;;;;;;;13.88;1.95;;;;;;;;;;5325726;26;97139;-51
2024/04/09 08:39:21;;;;;;;9.27;0.80;;;;;;;;;;5305541;26;95875;-53
2024/04/09 08:41:46;;;;;;;12.55;1.35;;;;;;;;;;5343453;26;96183;-50
2024/04/09 08:44:12;;;;;;;14.43;0.77;;;;;;;;;;5297489;26;97359;-52
2024/04/09 08:46:37;;;;;;;6.68;0.70;;;;;;;;;;5351918;26;95794;-50
2024/04/09 08:49:04;;;;;;;7.85;0.80;;;;;;;;;;5335957;26;96077;-48
2024/04/09 08:51:29;;;;;;;10.98;1.98;;;;;;;;;;5347133;26;95514;-51
2024/04/09 08:53:55;;;;;;;10.50;1.30;;;;;;;;;;5350717;26;95987;-50
2024/04/09 08:56:21;;;;;;;18.38;0.70;;;;;;;;;;5335372;26;97093;-49
2024/04/09 08:58:46;;;;;;;14.43;1.05;;;;;;;;;;5329417;26;95704;-49
2024/04/09 09:01:26;;;;;;;10.70;0.60;;;;;;;;;;5319712;26;96579;-50
2024/04/09 09:03:52;;;;;;;15.27;0.77;;;;;;;;;;5315570;26;96025;-49
2024/04/09 09:06:18;;;;;;;10.00;0.47;;;;;;;;;;5349500;26;97465;-50
2024/04/09 09:08:43;;;;;;;11.07;0.63;;;;;;;;;;5356504;26;96406;-51
2024/04/09 09:11:09;;;;;;;9.98;0.52;;;;;;;;;;5332586;26;95965;-50
2024/04/09 09:13:35;;;;;;;13.70;1.08;;;;;;;;;;5339787;26;96523;-51
2024/04/09 09:16:02;;;;;;;9.50;0.80;;;;;;;;;;5333050;26;97317;-51
2024/04/09 09:18:28;;;;;;;9.07;0.68;;;;;;;;;;5337470;26;97497;-50
2024/04/09 09:21:04;;;;;;;12.57;0.82;;;;;;;;;;5312556;26;97469;-50
2024/04/09 09:23:30;;;;;;;6.32;0.40;;;;;;;;;;5335387;26;96412;-49
2024/04/09 09:25:59;;;;;;;14.05;0.75;;;;;;;;;;5292510;26;97708;-50
2024/04/09 09:28:25;;;;;;;9.45;0.90;;;;;;;;;;5326129;26;95972;-50
2024/04/09 09:30:54;;;;;;;10.32;1.30;;;;;;;;;;5337587;26;96196;-51
2024/04/09 09:33:21;;;;;;;13.67;1.23;;;;;;;;;;5310357;26;97967;-50
2024/04/09 09:35:48;;;;;;;11.98;0.90;;;;;;;;;;5313765;26;97767;-50
2024/04/09 09:38:18;;;;;;;11.45;1.05;;;;;;;;;;5327604;26;95877;-50
2024/04/09 09:40:48;;;;;;;11.38;1.05;;;;;;;;;;5342124;26;96018;-51
2024/04/09 09:43:16;;;;;;;12.10;1.20;;;;;;;;;;5338966;26;96059;-51
2024/04/09 09:45:42;;;;;;;13.57;0.80;;;;;;;;;;5342583;26;96008;-53
2024/04/09 09:48:08;;;;;;;10.23;0.70;;;;;;;;;;5337734;26;96201;-53
2024/04/09 09:50:36;;;;;;;16.00;1.42;;;;;;;;;;5335327;26;96106;-53
2024/04/09 09:53:02;;;;;;;12.77;0.95;;;;;;;;;;5341148;26;95492;-51
2024/04/09 09:55:29;;;;;;;10.38;0.90;;;;;;;;;;5340979;26;96008;-51
2024/04/09 09:57:57;;;;;;;7.68;0.60;;;;;;;;;;5345536;26;95788;-51
2024/04/09 10:00:23;;;;;;;14.98;1.17;;;;;;;;;;5341277;26;96084;-50
2024/04/09 10:02:49;;;;;;;11.02;0.82;;;;;;;;;;5338864;26;97329;-51
2024/04/09 10:05:15;;;;;;;10.57;0.98;;;;;;;;;;5341519;26;95923;-48
2024/04/09 10:07:41;;;;;;;11.15;0.73;;;;;;;;;;5338177;26;96355;-48
2024/04/09 10:10:07;;;;;;;9.93;1.10;;;;;;;;;;5320640;26;96053;-51
2024/04/09 10:12:35;;;;;;;9.48;1.30;;;;;;;;;;5318217;26;95823;-51
2024/04/09 10:15:08;;;;;;;10.50;0.90;;;;;;;;;;5321533;26;96046;-49
2024/04/09 10:17:56;;;;;;;10.45;0.70;;;;;;;;;;5308208;26;98210;-48
2024/04/09 10:20:27;;;;;;;17.48;1.23;;;;;;;;;;5315767;26;97883;-51
2024/04/09 10:22:54;;;;;;;14.90;0.57;;;;;;;;;;5326698;26;96076;-53
2024/04/09 10:25:20;;;;;;;14.60;1.17;;;;;;;;;;5322324;26;96084;-50
2024/04/09 10:28:07;;;;;;;10.90;0.85;;;;;;;;;;5327370;26;96210;-49
2024/04/09 10:30:34;;;;;;;12.40;0.60;;;;;;;;;;5320242;26;96160;-49
2024/04/09 10:33:04;;;;;;;10.15;1.05;;;;;;;;;;5312907;26;97637;-49
2024/04/09 10:35:30;;;;;;;13.82;1.25;;;;;;;;;;5298304;26;97213;-53
2024/04/09 10:37:57;;;;;;;7.78;0.63;;;;;;;;;;5310831;26;95859;-51
2024/04/09 10:40:23;;;;;;;6.70;0.50;;;;;;;;;;5303528;26;96032;-50
2024/04/09 10:42:48;;;;;;;9.95;0.70;;;;;;;;;;5322762;26;96259;-50
2024/04/09 10:45:15;;;;;;;12.60;0.85;;;;;;;;;;5306476;26;95503;-50
2024/04/09 10:47:41;;;;;;;7.07;0.50;;;;;;;;;;5318051;26;96604;-50
2024/04/09 10:50:07;;;;;;;10.13;0.70;;;;;;;;;;5315100;26;96668;-50
2024/04/09 10:52:33;;;;;;;11.55;0.80;;;;;;;;;;5327236;26;95693;-51
2024/04/09 10:55:12;;;;;;;13.52;1.20;;;;;;;;;;5305810;26;96143;-49
2024/04/09 10:57:39;;;;;;;10.65;0.77;;;;;;;;;;5310105;26;97227;-49
2024/04/09 11:00:14;;;;;;;9.40;0.60;;;;;;;;;;5319532;26;95961;-49
2024/04/09 11:02:41;;;;;;;6.65;0.70;;;;;;;;;;5319490;26;96105;-50
2024/04/09 11:05:10;;;;;;;7.45;0.73;;;;;;;;;;5312472;26;96146;-49
2024/04/09 11:07:41;;;;;;;6.65;0.45;;;;;;;;;;5316118;26;97792;-49
2024/04/09 11:10:09;;;;;;;14.50;1.83;;;;;;;;;;5325977;26;96120;-48
2024/04/09 11:12:35;;;;;;;7.90;1.27;;;;;;;;;;5314318;26;96370;-50
2024/04/09 11:15:01;;;;;;;8.93;0.85;;;;;;;;;;5321350;26;97149;-51
2024/04/09 11:17:26;;;;;;;7.85;0.50;;;;;;;;;;5324111;26;96167;-50
2024/04/09 11:19:52;;;;;;;13.23;1.33;;;;;;;;;;5317695;26;97789;-49
2024/04/09 11:22:17;;;;;;;5.43;0.40;;;;;;;;;;5327271;26;96090;-49
2024/04/09 11:24:45;;;;;;;14.05;0.65;;;;;;;;;;5317845;26;96930;-49
2024/04/09 11:27:11;;;;;;;9.80;0.77;;;;;;;;;;5318397;26;96019;-51
2024/04/09 11:29:36;;;;;;;6.55;0.45;;;;;;;;;;5311012;26;96046;-51
2024/04/09 11:32:09;;;;;;;9.73;0.70;;;;;;;;;;5312772;26;95762;-50
2024/04/09 11:34:35;;;;;;;7.55;0.60;;;;;;;;;;5311545;26;96007;-50
2024/04/09 11:37:00;;;;;;;4.55;0.63;;;;;;;;;;5305651;26;98078;-51
2024/04/09 11:39:26;;;;;;;8.38;0.73;;;;;;;;;;5322281;26;96138;-50
2024/04/09 11:41:53;;;;;;;7.45;0.40;;;;;;;;;;5318543;26;95957;-50
2024/04/09 11:44:19;;;;;;;5.25;0.95;;;;;;;;;;5317985;26;96821;-51
2024/04/09 11:46:45;;;;;;;6.43;0.60;;;;;;;;;;5316537;26;96032;-51
2024/04/09 11:49:10;;;;;;;10.80;1.00;;;;;;;;;;5277886;26;95979;-51
2024/04/09 11:51:36;;;;;;;6.60;0.82;;;;;;;;;;5309778;26;96049;-52
2024/04/09 11:54:01;;;;;;;7.40;1.35;;;;;;;;;;5313598;26;96138;-52
2024/04/09 11:56:26;;;;;;;8.48;0.52;;;;;;;;;;5322612;26;96191;-49
2024/04/09 11:58:52;;;;;;;8.02;0.82;;;;;;;;;;5312531;26;95914;-51
2024/04/09 12:01:17;;;;;;;9.27;0.40;;;;;;;;;;5324188;26;96458;-49
2024/04/09 12:03:43;;;;;;;6.60;0.75;;;;;;;;;;5312584;26;95574;-49
2024/04/09 12:06:08;;;;;;;6.80;0.50;;;;;;;;;;5306297;26;96109;-51
2024/04/09 12:08:33;;;;;;;2.75;0.22;;;;;;;;;;5308569;26;97862;-51
2024/04/09 12:11:00;;;;;;;3.75;0.50;;;;;;;;;;5323557;26;95773;-50
2024/04/09 12:13:25;;;;;;;1.83;0.20;;;;;;;;;;5317269;26;96046;-51
2024/04/09 12:15:50;;;;;;;5.32;0.40;;;;;;;;;;5303094;26;97282;-49
2024/04/09 12:18:16;;;;;;;2.92;0.30;;;;;;;;;;5303691;26;96035;-49
2024/04/09 12:20:41;;;;;;;2.00;0.20;;;;;;;;;;5315430;26;95906;-48
2024/04/09 12:23:07;;;;;;;5.72;0.30;;;;;;;;;;5329720;26;97129;-49
2024/04/09 12:25:32;;;;;;;4.00;0.30;;;;;;;;;;5317361;26;98606;-48
2024/04/09 12:27:58;;;;;;;5.13;0.30;;;;;;;;;;5314034;26;97421;-52
2024/04/09 12:30:23;;;;;;;8.65;2.65;;;;;;;;;;5312245;26;98179;-52
2024/04/09 12:32:49;;;;;;;4.45;0.40;;;;;;;;;;5323691;26;96012;-51
2024/04/09 12:35:14;;;;;;;4.90;0.17;;;;;;;;;;5303768;26;95767;-51
2024/04/09 12:37:39;;;;;;;4.57;0.20;;;;;;;;;;5326396;26;97403;-52
2024/04/09 12:40:05;;;;;;;10.23;0.93;;;;;;;;;;5300862;26;98154;-51
2024/04/09 12:42:31;;;;;;;4.20;0.40;;;;;;;;;;5313415;26;96089;-49
2024/04/09 12:44:56;;;;;;;6.88;0.52;;;;;;;;;;5322994;26;95971;-51
2024/04/09 12:47:21;;;;;;;4.35;0.32;;;;;;;;;;5323849;26;96049;-51
2024/04/09 12:49:47;;;;;;;3.90;0.30;;;;;;;;;;5307763;26;97267;-50
2024/04/09 12:52:12;;;;;;;5.30;0.30;;;;;;;;;;5335032;26;97394;-52
2024/04/09 12:54:38;;;;;;;7.72;0.55;;;;;;;;;;5310531;26;96001;-49
2024/04/09 12:57:03;;;;;;;9.07;0.50;;;;;;;;;;5325003;26;96431;-51
2024/04/09 12:59:35;;;;;;;1.75;0.17;;;;;;;;;;5312253;26;96541;-51
2024/04/09 13:02:03;;;;;;;2.67;0.43;;;;;;;;;;5311168;26;96088;-50
2024/04/09 13:04:31;;;;;;;1.42;0.10;;;;;;;;;;5317890;26;96608;-50
2024/04/09 13:06:58;;;;;;;1.48;0.17;;;;;;;;;;5312561;26;95860;-50
2024/04/09 13:09:23;;;;;;;3.50;0.20;;;;;;;;;;5321160;26;95977;-51
2024/04/09 13:11:49;;;;;;;3.40;0.10;;;;;;;;;;5321989;26;96006;-51
2024/04/09 13:14:15;;;;;;;2.35;0.30;;;;;;;;;;5307419;26;96038;-51
2024/04/09 13:16:40;;;;;;;6.68;0.30;;;;;;;;;;5283170;26;95639;-51
2024/04/09 13:19:06;;;;;;;4.05;0.15;;;;;;;;;;5310104;26;96243;-50
2024/04/09 13:21:31;;;;;;;2.40;0.10;;;;;;;;;;5312735;26;96087;-50
2024/04/09 13:23:57;;;;;;;1.67;0.20;;;;;;;;;;5316088;26;98182;-50
2024/04/09 13:26:23;;;;;;;2.53;0.20;;;;;;;;;;5322711;26;97263;-50
2024/04/09 13:28:49;;;;;;;4.03;0.20;;;;;;;;;;5308392;26;96641;-51
2024/04/09 13:31:14;;;;;;;3.38;0.20;;;;;;;;;;5307138;26;97636;-50
2024/04/09 13:33:40;;;;;;;2.33;0.20;;;;;;;;;;5315687;26;95987;-51
2024/04/09 13:36:05;;;;;;;3.22;0.30;;;;;;;;;;5316698;26;95774;-49
2024/04/09 13:38:31;;;;;;;5.03;0.20;;;;;;;;;;5269975;26;96230;-51
2024/04/09 13:40:56;;;;;;;5.07;0.30;;;;;;;;;;5315174;26;96197;-51
2024/04/09 13:43:22;;;;;;;4.60;0.28;;;;;;;;;;5315658;26;95568;-50
2024/04/09 13:45:50;;;;;;;4.55;0.50;;;;;;;;;;5323444;26;97168;-51
2024/04/09 13:48:16;;;;;;;6.53;0.35;;;;;;;;;;5307818;26;96066;-51
2024/04/09 13:50:41;;;;;;;3.10;0.20;;;;;;;;;;5317140;26;95467;-50
2024/04/09 13:53:07;;;;;;;3.80;0.40;;;;;;;;;;5306088;26;96186;-54
2024/04/09 13:55:33;;;;;;;2.20;0.20;;;;;;;;;;5323690;26;95934;-51
2024/04/09 13:57:59;;;;;;;3.70;0.20;;;;;;;;;;5305339;26;95889;-52
2024/04/09 14:00:26;;;;;;;2.40;0.20;;;;;;;;;;5307730;26;97294;-53
2024/04/09 14:02:51;;;;;;;2.22;0.10;;;;;;;;;;5310577;26;97262;-52
2024/04/09 14:05:18;;;;;;;2.67;0.10;;;;;;;;;;5320444;26;97174;-51
2024/04/09 14:07:45;;;;;;;3.25;0.20;;;;;;;;;;5317151;26;97012;-51
2024/04/09 14:10:11;;;;;;;4.85;0.38;;;;;;;;;;5320489;26;97046;-52
2024/04/09 14:12:36;;;;;;;9.23;0.50;;;;;;;;;;5318727;26;96099;-52
2024/04/09 14:15:05;;;;;;;5.70;0.45;;;;;;;;;;5284497;26;95607;-52
2024/04/09 14:17:34;;;;;;;3.13;0.30;;;;;;;;;;5310486;26;97908;-52
2024/04/09 14:20:08;;;;;;;3.42;0.30;;;;;;;;;;5317063;26;96209;-50
2024/04/09 14:22:35;;;;;;;2.45;0.20;;;;;;;;;;5318257;26;95838;-50
2024/04/09 14:25:00;;;;;;;3.00;0.28;;;;;;;;;;5304639;26;95995;-52
2024/04/09 14:27:26;;;;;;;7.50;0.40;;;;;;;;;;5317342;26;97696;-52
2024/04/09 14:29:52;;;;;;;2.88;0.20;;;;;;;;;;5286241;26;95949;-51
2024/04/09 14:32:17;;;;;;;5.88;0.55;;;;;;;;;;5321227;26;95955;-52